Maldives Meteorological Service

METAR

Station
VRMM
METAR VRMM 201000Z 06011KT 5000 HZ FEW019 30/21 Q1011 NOSIG=
VRMH
METAR VRMH 201100Z 07004KT 5000 HZ FEW018 BKN260 29/22 Q1011=
VRMK
METAR VRMK 201100Z 03009KT 6000 FEW018 BKN270 29/21 Q1011=
VRMT
METAR VRMT 201100Z 03006KT 5000 HZ FEW018TCU BKN270 29/23 Q1010=
VRMG
METAR VRMG 201000Z 04006KT 5000 HZ FEW018TCU SCT110 BKN260 29/24 Q1010 TEMPO 5000 -SHRA=
Last Updated : 2019-01-20 15:02:40

SPECI

Station
VRMM
VRMH
VRMK
VRMT
VRMG
SPECI VRMG 200251Z VRB02KT 5000 HZ FEW018TCU BKN110 26/25 Q1013 NOSIG=
Last Updated : 2019-01-20 15:02:40